Time;durP1;ratioP1;P1;durP2;ratioP2;P2;SDS_P1;SDS_P2;PMS_P1;PMS_P2;Temp;Humidity;BMP_temperature;BMP_pressure;BME280_temperature;BME280_humidity;BME280_pressure;Samples;Min_cycle;Max_cycle;Signal;HPM_P1;HPM_P2
2023/10/21 00:02:07;;;;;;;4.87;3.27;;;11.90;99.90;;;;;;5075081;28;20519;-49
2023/10/21 00:04:35;;;;;;;6.63;2.73;;;11.90;99.90;;;;;;5073932;28;20191;-50
2023/10/21 00:07:03;;;;;;;5.10;2.70;;;12.00;99.90;;;;;;5057344;28;20194;-50
2023/10/21 00:09:30;;;;;;;8.30;2.67;;;12.00;99.90;;;;;;5074765;28;20175;-50
2023/10/21 00:11:59;;;;;;;5.80;2.40;;;12.00;99.90;;;;;;5056791;28;20214;-49
2023/10/21 00:14:27;;;;;;;4.13;2.43;;;12.10;99.90;;;;;;5074855;28;20179;-52
2023/10/21 00:16:53;;;;;;;5.07;1.97;;;12.10;99.90;;;;;;5057535;28;20183;-50
2023/10/21 00:19:19;;;;;;;2.97;2.33;;;12.10;99.90;;;;;;5083752;28;20179;-49
2023/10/21 00:21:48;;;;;;;4.13;2.20;;;12.10;99.90;;;;;;5075429;28;20202;-50
2023/10/21 00:24:15;;;;;;;3.70;2.07;;;12.20;99.90;;;;;;5056881;28;20191;-51
2023/10/21 00:26:49;;;;;;;6.27;2.00;;;12.20;99.90;;;;;;5056568;28;20183;-49
2023/10/21 00:29:16;;;;;;;5.63;2.20;;;12.20;99.90;;;;;;5070913;28;20191;-49
2023/10/21 00:31:45;;;;;;;4.13;2.10;;;12.20;99.90;;;;;;5074174;28;20199;-50
2023/10/21 00:34:19;;;;;;;4.00;2.43;;;12.30;99.90;;;;;;5074290;28;20194;-50
2023/10/21 00:36:46;;;;;;;3.03;2.00;;;12.30;99.90;;;;;;5074551;28;20517;-49
2023/10/21 00:39:11;;;;;;;4.17;2.30;;;12.30;99.90;;;;;;5074448;28;20187;-50
2023/10/21 00:41:39;;;;;;;3.50;2.50;;;12.30;99.90;;;;;;5073945;28;20589;-49
2023/10/21 00:44:06;;;;;;;5.83;2.27;;;12.40;99.90;;;;;;5056160;28;20274;-50
2023/10/21 00:46:33;;;;;;;5.57;2.37;;;12.40;99.90;;;;;;5074255;28;20171;-50
2023/10/21 00:49:04;;;;;;;5.50;2.50;;;12.40;99.90;;;;;;5074019;28;20207;-49
2023/10/21 00:51:33;;;;;;;6.43;2.00;;;12.40;99.90;;;;;;5073100;28;20232;-49
2023/10/21 00:54:03;;;;;;;3.93;2.30;;;12.40;99.90;;;;;;5073472;28;20222;-50
2023/10/21 00:56:29;;;;;;;3.80;2.30;;;12.40;99.90;;;;;;5074146;28;20176;-50
2023/10/21 00:58:56;;;;;;;4.20;2.30;;;12.50;99.90;;;;;;5074117;28;20187;-50
2023/10/21 01:01:22;;;;;;;7.90;2.50;;;12.40;99.90;;;;;;5073728;28;20207;-49
2023/10/21 01:03:49;;;;;;;5.43;1.87;;;12.50;99.90;;;;;;5055723;28;20199;-50
2023/10/21 01:06:15;;;;;;;6.53;2.23;;;12.50;99.90;;;;;;5055827;28;20176;-48
2023/10/21 01:08:45;;;;;;;4.43;2.53;;;12.50;99.90;;;;;;5073708;28;20518;-50
2023/10/21 01:11:13;;;;;;;4.90;2.30;;;12.50;99.90;;;;;;5073618;28;20274;-48
2023/10/21 01:13:39;;;;;;;2.70;1.87;;;12.40;99.90;;;;;;5073509;28;20175;-47
2023/10/21 01:16:05;;;;;;;2.80;2.23;;;12.40;99.90;;;;;;5073853;28;20511;-47
2023/10/21 01:18:38;;;;;;;3.40;1.90;;;12.50;99.90;;;;;;5055680;28;20589;-48
2023/10/21 01:21:04;;;;;;;2.17;1.80;;;12.40;99.90;;;;;;5055428;28;20234;-49
2023/10/21 01:23:30;;;;;;;7.37;2.30;;;12.50;99.90;;;;;;5073460;28;20221;-49
2023/10/21 01:25:56;;;;;;;5.73;1.90;;;12.40;99.90;;;;;;5055479;28;20233;-49
2023/10/21 01:28:22;;;;;;;4.03;2.20;;;12.40;99.90;;;;;;5073504;28;20203;-48
2023/10/21 01:30:47;;;;;;;4.93;2.57;;;12.50;99.90;;;;;;5055345;28;20234;-48
2023/10/21 01:33:14;;;;;;;3.87;2.30;;;12.50;99.90;;;;;;5055369;28;20524;-48
2023/10/21 01:35:39;;;;;;;10.57;2.73;;;12.50;99.90;;;;;;5073659;28;20266;-49
2023/10/21 01:38:05;;;;;;;6.60;2.77;;;12.40;99.90;;;;;;5055278;28;20275;-48
2023/10/21 01:40:31;;;;;;;5.37;2.30;;;12.40;99.90;;;;;;5055231;28;20264;-47
2023/10/21 01:42:57;;;;;;;5.30;2.97;;;12.40;99.90;;;;;;5073208;28;20210;-49
2023/10/21 01:45:23;;;;;;;4.33;2.40;;;12.40;99.90;;;;;;5073278;28;20175;-50
2023/10/21 01:47:48;;;;;;;4.63;3.20;;;12.40;99.90;;;;;;5055294;28;20182;-48
2023/10/21 01:50:15;;;;;;;5.37;2.80;;;12.30;99.90;;;;;;5073428;28;20187;-47
2023/10/21 01:52:41;;;;;;;4.30;2.77;;;12.30;99.90;;;;;;5056648;28;20205;-49
2023/10/21 01:55:08;;;;;;;5.33;2.77;;;12.30;99.90;;;;;;5074288;28;20183;-48
2023/10/21 01:57:34;;;;;;;4.03;2.90;;;12.30;99.90;;;;;;5073134;28;20182;-46
2023/10/21 02:00:01;;;;;;;5.50;2.97;;;12.30;99.90;;;;;;5055084;28;20297;-48
2023/10/21 02:02:28;;;;;;;4.47;2.73;;;12.30;99.90;;;;;;5055022;28;20252;-46
2023/10/21 02:04:54;;;;;;;4.90;2.80;;;12.20;99.90;;;;;;5056456;28;20550;-47
2023/10/21 02:07:19;;;;;;;3.70;2.53;;;12.20;99.90;;;;;;5059158;28;20205;-48
2023/10/21 02:09:45;;;;;;;3.23;2.90;;;12.20;99.90;;;;;;5059056;28;20225;-47
2023/10/21 02:12:11;;;;;;;7.90;3.03;;;12.30;99.90;;;;;;5059036;28;20207;-47
2023/10/21 02:14:37;;;;;;;4.37;2.67;;;12.30;99.90;;;;;;5076922;28;20168;-49
2023/10/21 02:17:03;;;;;;;5.50;2.70;;;12.20;99.90;;;;;;5059025;28;20609;-48
2023/10/21 02:19:28;;;;;;;3.10;2.80;;;12.30;99.90;;;;;;5076881;28;20175;-49
2023/10/21 02:21:54;;;;;;;6.53;2.87;;;12.30;99.90;;;;;;5058796;28;20195;-48
2023/10/21 02:24:20;;;;;;;5.53;2.83;;;12.30;99.90;;;;;;5058708;28;20212;-47
2023/10/21 02:26:45;;;;;;;6.93;2.97;;;12.30;99.90;;;;;;5077571;28;20183;-47
2023/10/21 02:29:11;;;;;;;6.60;3.17;;;12.30;99.90;;;;;;5076636;28;20167;-46
2023/10/21 02:31:37;;;;;;;7.03;3.17;;;12.30;99.90;;;;;;5058671;28;20192;-47
2023/10/21 02:34:03;;;;;;;3.63;2.87;;;12.30;99.90;;;;;;5076899;28;20172;-48
2023/10/21 02:36:28;;;;;;;6.57;2.73;;;12.30;99.90;;;;;;5076711;28;20179;-46
2023/10/21 02:38:54;;;;;;;4.87;3.00;;;12.30;99.90;;;;;;5077063;28;20179;-48
2023/10/21 02:41:20;;;;;;;7.63;2.73;;;12.40;99.90;;;;;;5076492;28;20211;-46
2023/10/21 02:43:46;;;;;;;3.43;2.60;;;12.40;99.90;;;;;;5076257;28;20663;-46
2023/10/21 02:46:13;;;;;;;5.23;2.63;;;12.40;99.90;;;;;;5058391;28;20176;-47
2023/10/21 02:48:39;;;;;;;4.43;2.70;;;12.40;99.90;;;;;;5076513;28;20174;-48
2023/10/21 02:51:09;;;;;;;3.97;2.90;;;12.50;99.90;;;;;;5058299;28;20195;-48
2023/10/21 02:53:36;;;;;;;5.57;2.67;;;12.50;99.90;;;;;;5076236;28;20196;-47
2023/10/21 02:56:05;;;;;;;3.63;2.10;;;12.50;99.90;;;;;;5076174;28;20647;-48
2023/10/21 02:58:31;;;;;;;7.70;2.80;;;12.50;99.90;;;;;;5076398;28;20184;-47
2023/10/21 03:00:56;;;;;;;3.20;2.20;;;12.50;99.90;;;;;;5058048;28;20333;-49
2023/10/21 03:03:22;;;;;;;3.00;2.10;;;12.60;99.90;;;;;;5075963;28;20227;-46
2023/10/21 03:05:48;;;;;;;2.37;1.67;;;12.60;99.90;;;;;;5075986;28;20209;-48
2023/10/21 03:08:14;;;;;;;4.33;1.80;;;12.60;99.90;;;;;;5075971;28;20300;-47
2023/10/21 03:10:40;;;;;;;2.03;1.80;;;12.70;99.90;;;;;;5076445;28;20274;-48
2023/10/21 03:13:06;;;;;;;1.83;1.50;;;12.70;99.90;;;;;;5057972;28;20652;-48
2023/10/21 03:15:33;;;;;;;1.60;1.43;;;12.70;99.90;;;;;;5075958;28;20175;-48
2023/10/21 03:17:59;;;;;;;3.60;1.50;;;12.70;99.90;;;;;;5075710;28;20183;-47
2023/10/21 03:20:33;;;;;;;2.57;1.37;;;12.70;99.90;;;;;;5076541;28;20214;-50
2023/10/21 03:23:12;;;;;;;3.73;1.40;;;12.70;99.90;;;;;;5057725;28;20207;-49
2023/10/21 03:25:39;;;;;;;2.07;1.07;;;12.80;99.90;;;;;;5076250;28;20727;-48
2023/10/21 03:28:17;;;;;;;2.70;1.20;;;12.80;99.90;;;;;;5075516;28;20171;-49
2023/10/21 03:30:49;;;;;;;1.57;1.07;;;12.80;99.90;;;;;;5075292;28;20195;-48
2023/10/21 03:33:21;;;;;;;3.13;1.40;;;12.80;99.90;;;;;;5057590;28;20175;-49
2023/10/21 03:40:10;;;;;;;;;;;;;;;;;;;;;
2023/10/21 03:42:26;;;;;;;1.80;1.20;;;12.90;99.90;;;;;;5054136;28;20245;-49
2023/10/21 03:45:04;;;;;;;1.73;1.13;;;12.90;99.90;;;;;;5075256;28;20159;-48
2023/10/21 03:47:33;;;;;;;4.30;1.40;;;12.90;99.90;;;;;;5056972;28;20650;-49
2023/10/21 03:50:10;;;;;;;2.60;1.40;;;13.00;99.90;;;;;;5057123;28;20206;-49
2023/10/21 03:52:44;;;;;;;1.53;1.30;;;13.00;99.90;;;;;;5057191;28;20217;-49
2023/10/21 03:55:10;;;;;;;4.47;1.60;;;13.00;99.90;;;;;;5075374;28;20160;-49
2023/10/21 03:57:42;;;;;;;1.70;1.33;;;13.10;99.90;;;;;;5057035;28;20183;-49
2023/10/21 04:00:09;;;;;;;2.63;1.70;;;13.10;99.90;;;;;;5040695;28;20234;-49
2023/10/21 04:02:35;;;;;;;2.80;1.83;;;13.10;99.90;;;;;;5056884;28;20206;-49
2023/10/21 04:05:01;;;;;;;3.20;1.40;;;13.10;99.90;;;;;;5056951;28;20643;-50
2023/10/21 04:07:26;;;;;;;7.37;1.70;;;13.10;99.90;;;;;;5056834;28;20210;-49
2023/10/21 04:09:52;;;;;;;3.70;1.80;;;13.00;99.90;;;;;;5074970;28;20227;-50
2023/10/21 04:12:18;;;;;;;3.73;1.70;;;13.10;99.90;;;;;;5074929;28;20645;-51
2023/10/21 04:14:44;;;;;;;6.10;2.07;;;13.10;99.90;;;;;;5074938;28;20172;-50
2023/10/21 04:17:10;;;;;;;6.83;1.70;;;13.00;99.90;;;;;;5074647;28;20218;-50
2023/10/21 04:19:36;;;;;;;2.13;1.53;;;13.00;99.90;;;;;;5056550;28;20270;-49
2023/10/21 04:22:02;;;;;;;3.03;1.90;;;13.00;99.90;;;;;;5056531;28;20179;-49
2023/10/21 04:24:28;;;;;;;4.50;1.60;;;12.90;99.90;;;;;;5074602;28;20574;-49
2023/10/21 04:26:54;;;;;;;5.13;2.03;;;12.90;99.90;;;;;;5056480;28;20229;-49
2023/10/21 04:29:20;;;;;;;5.43;1.70;;;12.90;99.90;;;;;;5073391;28;20531;-49
2023/10/21 04:31:49;;;;;;;5.50;2.00;;;12.90;99.90;;;;;;5057123;28;20293;-50
2023/10/21 04:34:15;;;;;;;2.43;1.67;;;12.80;99.90;;;;;;5053720;28;20186;-49
2023/10/21 04:36:41;;;;;;;4.37;2.10;;;12.80;99.90;;;;;;5056593;28;20176;-50
2023/10/21 04:39:11;;;;;;;3.90;1.80;;;12.80;99.90;;;;;;5056343;28;20179;-50
2023/10/21 04:41:48;;;;;;;5.13;1.70;;;12.80;99.90;;;;;;5056053;28;20647;-50
2023/10/21 04:44:14;;;;;;;4.60;2.00;;;12.70;99.90;;;;;;5040109;28;20206;-49
2023/10/21 04:46:40;;;;;;;3.83;1.87;;;12.70;99.90;;;;;;5056112;28;20183;-49
2023/10/21 04:49:11;;;;;;;7.10;1.63;;;12.60;99.90;;;;;;5056060;28;20212;-49
2023/10/21 04:51:39;;;;;;;6.17;1.60;;;12.60;99.90;;;;;;5056152;28;20203;-50
2023/10/21 04:54:08;;;;;;;4.47;1.53;;;12.60;99.90;;;;;;5056005;28;20647;-50
2023/10/21 04:56:35;;;;;;;3.17;1.77;;;12.60;99.90;;;;;;5056032;28;20207;-49
2023/10/21 04:59:02;;;;;;;6.40;1.70;;;12.50;99.90;;;;;;5073715;28;20706;-50
2023/10/21 05:01:34;;;;;;;4.80;1.67;;;12.60;99.90;;;;;;5054869;28;20195;-51
2023/10/21 05:04:03;;;;;;;2.43;1.50;;;12.50;99.90;;;;;;5073934;28;20202;-50
2023/10/21 05:06:32;;;;;;;1.53;1.33;;;12.50;99.90;;;;;;5072945;28;20164;-50
2023/10/21 05:08:58;;;;;;;3.63;1.50;;;12.50;99.90;;;;;;5055669;28;20191;-51
2023/10/21 05:11:24;;;;;;;4.93;1.87;;;12.50;99.90;;;;;;5055645;28;20208;-51
2023/10/21 05:13:51;;;;;;;3.63;1.43;;;12.40;99.90;;;;;;5055567;28;20639;-50
2023/10/21 05:16:19;;;;;;;2.27;1.27;;;12.40;99.90;;;;;;5055655;28;20236;-49
2023/10/21 05:18:45;;;;;;;4.20;1.20;;;12.40;99.90;;;;;;5073817;28;20541;-50
2023/10/21 05:21:11;;;;;;;6.13;1.30;;;12.40;99.90;;;;;;5055434;28;20203;-51
2023/10/21 05:23:38;;;;;;;3.60;1.40;;;12.40;99.90;;;;;;5073367;28;20204;-50
2023/10/21 05:26:07;;;;;;;3.23;1.33;;;12.30;99.90;;;;;;5055553;28;20175;-49
2023/10/21 05:28:33;;;;;;;4.77;1.60;;;12.20;99.90;;;;;;5055757;28;20187;-50
2023/10/21 05:31:01;;;;;;;2.80;1.47;;;12.20;99.90;;;;;;5055644;28;20207;-50
2023/10/21 05:33:27;;;;;;;5.37;1.40;;;12.20;99.90;;;;;;5073337;28;20186;-51
2023/10/21 05:35:57;;;;;;;2.30;1.13;;;12.10;99.90;;;;;;5038838;28;20558;-49
2023/10/21 05:38:24;;;;;;;9.50;1.30;;;12.10;99.90;;;;;;5056214;28;20175;-50
2023/10/21 05:40:50;;;;;;;3.80;1.30;;;12.10;99.90;;;;;;5072989;28;20207;-49
2023/10/21 05:43:18;;;;;;;3.87;1.53;;;12.10;99.90;;;;;;5055398;28;20757;-50
2023/10/21 05:45:45;;;;;;;4.63;1.20;;;12.10;99.90;;;;;;5055294;28;20186;-50
2023/10/21 05:48:11;;;;;;;3.10;1.60;;;12.10;99.90;;;;;;5054752;28;20187;-49
2023/10/21 05:50:37;;;;;;;2.10;1.43;;;12.20;99.90;;;;;;5055181;28;20203;-51
2023/10/21 05:53:03;;;;;;;3.33;1.33;;;12.10;99.90;;;;;;5055204;28;20701;-48
2023/10/21 05:55:29;;;;;;;5.07;1.90;;;12.20;99.90;;;;;;5073604;28;20602;-51
2023/10/21 05:57:55;;;;;;;3.53;1.50;;;12.10;99.90;;;;;;5074102;28;20222;-49
2023/10/21 06:00:21;;;;;;;3.43;1.30;;;12.10;99.90;;;;;;5073085;28;20203;-49
2023/10/21 06:02:46;;;;;;;2.83;1.50;;;12.10;99.90;;;;;;5055163;28;20207;-50
2023/10/21 06:05:14;;;;;;;3.17;1.43;;;12.20;99.90;;;;;;5055199;28;20183;-51
2023/10/21 06:07:40;;;;;;;4.43;1.53;;;12.20;99.90;;;;;;5055147;28;20183;-49
2023/10/21 06:10:07;;;;;;;2.13;1.60;;;12.30;99.90;;;;;;5054948;28;20677;-48
2023/10/21 06:12:33;;;;;;;3.63;1.33;;;12.30;99.90;;;;;;5055120;28;20623;-49
2023/10/21 06:15:03;;;;;;;3.37;1.30;;;12.30;99.90;;;;;;5054981;28;20218;-50
2023/10/21 06:17:39;;;;;;;1.60;1.00;;;12.40;99.90;;;;;;5054713;28;20201;-48
2023/10/21 06:20:29;;;;;;;1.23;0.90;;;12.40;99.90;;;;;;5054895;28;20199;-48
2023/10/21 06:22:54;;;;;;;1.50;0.73;;;12.50;99.90;;;;;;5052353;28;20302;-50
2023/10/21 06:25:20;;;;;;;1.43;0.90;;;12.60;99.90;;;;;;5055012;28;20628;-49
2023/10/21 06:27:49;;;;;;;2.77;1.20;;;12.70;99.90;;;;;;5054997;28;20267;-48
2023/10/21 06:30:16;;;;;;;2.63;0.90;;;12.70;99.90;;;;;;5055088;28;20203;-51
2023/10/21 06:32:51;;;;;;;2.67;0.80;;;12.80;99.90;;;;;;5054823;28;20270;-49
2023/10/21 06:35:27;;;;;;;1.10;0.60;;;12.80;99.90;;;;;;5054934;28;20179;-49
2023/10/21 06:37:53;;;;;;;1.60;0.90;;;12.80;99.90;;;;;;5038778;28;20167;-50
2023/10/21 06:40:19;;;;;;;3.80;0.77;;;12.90;99.90;;;;;;5054715;28;20683;-49
2023/10/21 06:42:47;;;;;;;0.90;0.60;;;12.90;99.90;;;;;;5072614;28;20218;-49
2023/10/21 06:45:13;;;;;;;1.20;0.50;;;12.90;99.90;;;;;;5054587;28;20221;-50
2023/10/21 06:47:39;;;;;;;1.47;0.60;;;13.00;99.90;;;;;;5054717;28;20655;-49
2023/10/21 06:50:06;;;;;;;1.60;0.83;;;13.00;99.90;;;;;;5054623;28;20203;-50
2023/10/21 06:52:37;;;;;;;0.70;0.47;;;13.00;99.90;;;;;;5056916;28;20175;-51
2023/10/21 06:55:05;;;;;;;1.23;0.50;;;13.00;99.90;;;;;;5076738;28;20160;-50
2023/10/21 06:57:31;;;;;;;1.90;0.90;;;13.10;99.90;;;;;;5059140;28;20290;-51
2023/10/21 06:59:57;;;;;;;3.10;0.50;;;13.10;99.90;;;;;;5076140;28;20227;-49
2023/10/21 07:02:23;;;;;;;0.30;0.30;;;13.10;99.90;;;;;;5058440;28;20723;-50
2023/10/21 07:04:50;;;;;;;2.73;0.40;;;13.10;99.90;;;;;;5058146;28;20258;-50
2023/10/21 07:07:15;;;;;;;0.40;0.30;;;13.20;99.90;;;;;;5076040;28;20179;-49
2023/10/21 07:09:41;;;;;;;0.67;0.57;;;13.10;99.90;;;;;;5058108;28;20180;-49
2023/10/21 07:12:07;;;;;;;0.20;0.20;;;13.20;99.90;;;;;;5058046;28;20190;-49
2023/10/21 07:14:33;;;;;;;0.63;0.33;;;13.20;99.90;;;;;;5075827;28;20531;-50
2023/10/21 07:17:00;;;;;;;0.30;0.30;;;13.20;99.90;;;;;;5076142;28;20176;-51
2023/10/21 07:19:26;;;;;;;0.27;0.27;;;13.20;99.90;;;;;;5075881;28;20184;-50
2023/10/21 07:21:52;;;;;;;2.47;0.47;;;13.30;99.90;;;;;;5041250;28;20230;-50
2023/10/21 07:24:18;;;;;;;1.10;0.40;;;13.30;99.90;;;;;;5057654;28;20682;-49
2023/10/21 07:26:45;;;;;;;1.20;0.37;;;13.30;99.90;;;;;;5075801;28;20203;-50
2023/10/21 07:29:10;;;;;;;3.17;0.30;;;13.30;99.90;;;;;;5057681;28;20179;-49
2023/10/21 07:31:38;;;;;;;0.83;0.30;;;13.30;99.90;;;;;;5057481;28;20260;-49
2023/10/21 07:34:05;;;;;;;0.77;0.30;;;13.30;99.90;;;;;;5075529;28;20658;-50
2023/10/21 07:36:34;;;;;;;0.47;0.47;;;13.30;99.90;;;;;;5075593;28;20206;-50
2023/10/21 07:39:00;;;;;;;0.67;0.30;;;13.30;99.90;;;;;;5075468;28;20665;-48
2023/10/21 07:41:25;;;;;;;3.13;0.37;;;13.30;99.90;;;;;;5057242;28;20223;-50
2023/10/21 07:43:54;;;;;;;1.70;0.40;;;13.30;99.90;;;;;;5075234;28;20203;-48
2023/10/21 07:46:20;;;;;;;0.60;0.20;;;13.30;99.90;;;;;;5057305;28;20236;-51
2023/10/21 07:48:46;;;;;;;0.93;0.30;;;13.30;99.90;;;;;;5075533;28;20542;-49
2023/10/21 07:51:12;;;;;;;0.97;0.40;;;13.40;99.90;;;;;;5075227;28;20202;-49
2023/10/21 07:53:41;;;;;;;0.83;0.43;;;13.40;99.90;;;;;;5075484;28;20524;-48
2023/10/21 07:56:07;;;;;;;1.50;0.30;;;13.40;99.90;;;;;;5075368;28;20218;-49
2023/10/21 07:58:32;;;;;;;2.37;0.67;;;13.40;99.90;;;;;;5075278;28;20203;-50
2023/10/21 08:00:58;;;;;;;0.30;0.20;;;13.50;99.90;;;;;;5057065;28;20233;-50
2023/10/21 08:03:24;;;;;;;1.03;0.50;;;13.50;99.90;;;;;;5074815;28;20575;-50
2023/10/21 08:05:52;;;;;;;1.80;0.30;;;13.50;99.90;;;;;;5074807;28;20171;-50
2023/10/21 08:08:17;;;;;;;0.83;0.33;;;13.50;99.90;;;;;;5075160;28;20183;-50
2023/10/21 08:10:44;;;;;;;0.97;0.30;;;13.40;99.90;;;;;;5074759;28;20703;-51
2023/10/21 08:13:09;;;;;;;1.30;0.50;;;13.50;99.90;;;;;;5075002;28;20184;-51
2023/10/21 08:15:35;;;;;;;0.83;0.30;;;13.50;99.90;;;;;;5074676;28;20230;-50
2023/10/21 08:18:02;;;;;;;1.30;0.40;;;13.40;99.90;;;;;;5075399;28;20654;-50
2023/10/21 08:20:28;;;;;;;1.00;0.40;;;13.40;99.90;;;;;;5056812;28;20213;-52
2023/10/21 08:22:56;;;;;;;2.03;0.60;;;13.40;99.90;;;;;;5075030;28;20211;-51
2023/10/21 08:25:22;;;;;;;1.13;0.40;;;13.40;99.90;;;;;;5056628;28;20179;-51
2023/10/21 08:27:50;;;;;;;0.93;0.30;;;13.40;99.90;;;;;;5074377;28;20728;-52
2023/10/21 08:30:20;;;;;;;1.50;0.50;;;13.40;99.90;;;;;;5056444;28;20196;-52
2023/10/21 08:32:50;;;;;;;0.83;0.30;;;13.40;99.90;;;;;;5074384;28;20695;-51
2023/10/21 08:35:16;;;;;;;0.67;0.37;;;13.40;99.90;;;;;;5074795;28;20547;-51
2023/10/21 08:37:42;;;;;;;2.87;0.53;;;13.40;99.90;;;;;;5075962;28;20187;-51
2023/10/21 08:40:10;;;;;;;2.47;0.70;;;13.40;99.90;;;;;;5074015;28;20735;-49
2023/10/21 08:42:37;;;;;;;2.10;0.80;;;13.50;99.90;;;;;;5073900;28;20188;-50
2023/10/21 08:45:09;;;;;;;1.20;0.43;;;13.50;99.90;;;;;;5074323;28;20255;-51
2023/10/21 08:47:40;;;;;;;1.67;0.40;;;13.60;99.90;;;;;;5057028;28;20243;-49
2023/10/21 08:50:09;;;;;;;4.53;0.60;;;13.70;99.90;;;;;;5072800;28;20278;-51
2023/10/21 08:52:37;;;;;;;3.37;0.47;;;13.80;99.90;;;;;;5071809;28;20266;-50
2023/10/21 08:55:05;;;;;;;0.77;0.40;;;13.80;99.90;;;;;;5056045;28;20258;-50
2023/10/21 08:57:48;;;;;;;1.30;0.50;;;13.90;99.90;;;;;;5056823;28;20184;-52
2023/10/21 09:00:44;;;;;;;1.37;0.70;;;14.00;99.90;;;;;;5071878;28;20207;-50
2023/10/21 09:03:12;;;;;;;3.83;0.57;;;14.10;99.90;;;;;;5073750;28;20199;-51
2023/10/21 09:06:03;;;;;;;1.30;0.40;;;14.20;99.90;;;;;;5055823;28;20192;-50
2023/10/21 09:08:32;;;;;;;13.37;0.77;;;14.30;99.90;;;;;;5074007;28;20175;-50
2023/10/21 09:11:06;;;;;;;13.40;0.80;;;14.40;99.90;;;;;;5073631;28;20199;-51
2023/10/21 09:13:34;;;;;;;1.80;0.53;;;14.40;99.90;;;;;;5057378;28;20517;-50
2023/10/21 09:16:29;;;;;;;6.93;0.70;;;14.40;99.90;;;;;;5055962;28;20207;-49
2023/10/21 09:19:10;;;;;;;4.27;0.70;;;14.40;99.90;;;;;;5055680;28;20317;-50
2023/10/21 09:25:22;;;;;;;1.23;0.40;;;14.50;99.90;;;;;;5073687;28;20174;-50
2023/10/21 09:27:59;;;;;;;1.27;0.30;;;14.60;99.90;;;;;;5073785;28;20175;-49
2023/10/21 09:30:29;;;;;;;2.17;0.50;;;14.70;99.90;;;;;;5073609;28;20190;-52
2023/10/21 09:36:18;;;;;;;2.33;0.57;;;14.90;99.90;;;;;;5073432;28;20167;-52
2023/10/21 09:38:49;;;;;;;1.83;0.53;;;14.90;99.90;;;;;;5073744;28;20262;-50
2023/10/21 09:41:17;;;;;;;1.80;0.60;;;15.00;99.90;;;;;;5055299;28;20206;-50
2023/10/21 09:43:48;;;;;;;6.00;0.80;;;15.00;99.90;;;;;;5073396;28;20211;-50
2023/10/21 09:46:16;;;;;;;3.13;0.97;;;15.10;99.90;;;;;;5055442;28;20178;-52
2023/10/21 09:48:45;;;;;;;3.97;0.63;;;15.10;99.90;;;;;;5073161;28;20646;-51
2023/10/21 09:51:15;;;;;;;2.17;0.40;;;15.10;99.90;;;;;;5073430;28;20195;-52
2023/10/21 09:53:47;;;;;;;2.17;0.57;;;15.20;99.90;;;;;;5055268;28;20206;-50
2023/10/21 09:56:17;;;;;;;4.43;0.83;;;15.20;99.90;;;;;;5022663;28;20266;-49
2023/10/21 09:58:43;;;;;;;1.47;0.50;;;15.30;99.90;;;;;;5073212;28;20586;-51
2023/10/21 10:01:10;;;;;;;2.37;0.50;;;15.30;99.90;;;;;;5073140;28;20199;-50
2023/10/21 10:03:37;;;;;;;2.83;0.50;;;15.30;99.90;;;;;;5055496;28;20663;-49
2023/10/21 10:06:04;;;;;;;1.97;0.40;;;15.40;99.90;;;;;;5055512;28;20199;-50
2023/10/21 10:08:36;;;;;;;3.13;0.47;;;15.40;99.90;;;;;;5073395;28;20567;-49
2023/10/21 10:11:10;;;;;;;3.20;0.60;;;15.40;99.90;;;;;;5072827;28;20198;-52
2023/10/21 10:13:48;;;;;;;4.47;0.80;;;15.50;99.90;;;;;;5055065;28;20197;-50
2023/10/21 10:16:24;;;;;;;1.53;0.37;;;15.50;99.90;;;;;;5072298;28;20183;-50
2023/10/21 10:18:56;;;;;;;2.93;0.67;;;15.60;99.90;;;;;;5072686;28;20180;-50
2023/10/21 10:21:27;;;;;;;0.73;0.50;;;15.70;99.90;;;;;;5073106;28;20667;-50
2023/10/21 10:24:02;;;;;;;2.13;0.40;;;15.70;99.90;;;;;;5072761;28;20265;-50
2023/10/21 10:26:43;;;;;;;3.50;0.40;;;15.70;99.90;;;;;;5073543;28;20198;-51
2023/10/21 10:32:43;;;;;;;2.27;0.43;;;15.90;99.90;;;;;;5076764;28;20239;-52
2023/10/21 10:35:32;;;;;;;2.37;0.60;;;15.80;99.90;;;;;;5059868;28;20530;-51
2023/10/21 10:38:05;;;;;;;0.87;0.50;;;15.90;99.90;;;;;;5059479;28;20168;-51
2023/10/21 10:40:43;;;;;;;0.63;0.40;;;15.90;99.90;;;;;;5076400;28;20187;-52
2023/10/21 10:43:11;;;;;;;2.23;0.53;;;15.90;99.90;;;;;;5059458;28;20233;-52
2023/10/21 10:45:43;;;;;;;1.53;0.40;;;15.90;99.90;;;;;;5058633;28;20187;-51
2023/10/21 10:48:11;;;;;;;2.13;0.60;;;16.00;99.90;;;;;;5076663;28;20152;-51
2023/10/21 10:50:37;;;;;;;2.80;0.70;;;16.00;99.90;;;;;;5058748;28;20199;-52
2023/10/21 10:53:20;;;;;;;2.20;0.50;;;15.90;99.90;;;;;;5076596;28;20221;-52
2023/10/21 10:55:55;;;;;;;1.90;0.60;;;15.80;99.90;;;;;;5058396;28;20175;-52
2023/10/21 10:58:22;;;;;;;3.33;0.87;;;15.80;99.90;;;;;;5058262;28;20179;-50
2023/10/21 11:00:48;;;;;;;3.60;0.87;;;15.80;99.90;;;;;;5076192;28;20196;-52
2023/10/21 11:03:29;;;;;;;3.67;0.90;;;15.90;99.90;;;;;;5058125;28;20203;-51
2023/10/21 11:05:56;;;;;;;3.23;0.90;;;15.90;99.90;;;;;;5058311;28;20187;-52
2023/10/21 11:08:23;;;;;;;3.30;0.70;;;16.00;99.90;;;;;;5076054;28;20170;-50
2023/10/21 11:10:53;;;;;;;2.07;0.87;;;16.10;99.90;;;;;;5075945;28;20183;-52
2023/10/21 11:13:20;;;;;;;3.33;0.77;;;16.10;99.90;;;;;;5076087;28;20672;-52
2023/10/21 11:15:54;;;;;;;3.63;0.97;;;16.20;99.90;;;;;;5076252;28;20188;-51
2023/10/21 11:18:22;;;;;;;2.90;0.90;;;16.30;99.90;;;;;;5076919;28;20243;-52
2023/10/21 11:20:49;;;;;;;1.90;0.60;;;16.40;99.90;;;;;;5041831;28;20196;-50
2023/10/21 11:23:18;;;;;;;4.77;0.90;;;16.40;99.90;;;;;;5057748;28;20238;-50
2023/10/21 11:25:50;;;;;;;4.17;1.10;;;16.40;99.90;;;;;;5075752;28;20196;-51
2023/10/21 11:28:17;;;;;;;2.97;1.03;;;16.40;99.90;;;;;;5058325;28;20175;-51
2023/10/21 11:30:47;;;;;;;2.83;0.90;;;16.30;99.90;;;;;;5057693;28;20226;-52
2023/10/21 11:33:13;;;;;;;5.37;0.97;;;16.30;99.90;;;;;;5075492;28;20247;-50
2023/10/21 11:35:47;;;;;;;2.60;0.90;;;16.30;99.90;;;;;;5075603;28;20737;-51
2023/10/21 11:38:16;;;;;;;5.10;0.87;;;16.20;99.90;;;;;;5075019;28;20202;-52
2023/10/21 11:40:46;;;;;;;5.47;1.40;;;16.20;99.90;;;;;;5076093;28;20210;-51
2023/10/21 11:43:16;;;;;;;3.90;1.10;;;16.20;99.90;;;;;;5076973;28;20701;-51
2023/10/21 12:47:52;;;;;;;23.17;2.07;;;16.70;99.90;;;;;;1483708;26;20574;-48
2023/10/21 12:50:27;;;;;;;3.63;1.10;;;16.60;99.90;;;;;;5057719;28;20227;-49
2023/10/21 12:52:53;;;;;;;8.67;1.30;;;16.70;99.90;;;;;;5075978;28;20595;-49
2023/10/21 12:55:25;;;;;;;5.30;1.27;;;16.70;91.30;;;;;;5074032;28;20195;-49
2023/10/21 12:58:02;;;;;;;75.27;5.57;;;16.70;64.30;;;;;;5074988;28;20221;-48
2023/10/21 13:00:29;;;;;;;25.43;2.60;;;16.70;89.20;;;;;;5074351;28;20207;-48
2023/10/21 13:02:57;;;;;;;6.87;1.30;;;16.70;78.70;;;;;;5057154;28;20187;-49
2023/10/21 13:12:14;;;;;;;5.23;1.00;;;16.70;98.00;;;;;;5074995;28;20265;-45
2023/10/21 13:14:44;;;;;;;9.33;1.87;;;16.80;72.60;;;;;;5074447;28;20166;-46
2023/10/21 13:17:12;;;;;;;2.80;0.90;;;16.80;69.40;;;;;;5074083;28;20607;-44
2023/10/21 13:19:38;;;;;;;9.27;1.93;;;16.90;80.70;;;;;;5073930;28;20237;-46
2023/10/21 13:22:08;;;;;;;4.13;1.30;;;16.90;90.90;;;;;;5073804;28;20180;-45
2023/10/21 13:24:36;;;;;;;10.03;1.27;;;16.90;71.40;;;;;;5055843;28;20210;-46
2023/10/21 13:27:06;;;;;;;6.43;1.40;;;16.90;76.90;;;;;;5038276;28;20199;-44
2023/10/21 13:29:41;;;;;;;4.40;1.20;;;16.80;91.60;;;;;;5074216;28;20183;-46
2023/10/21 13:32:08;;;;;;;5.03;1.30;;;16.90;93.00;;;;;;5041058;28;20522;-45
2023/10/21 13:34:35;;;;;;;4.47;1.30;;;16.90;70.00;;;;;;5074582;28;20198;-41
2023/10/21 13:37:00;;;;;;;7.47;1.27;;;16.90;63.90;;;;;;5074445;28;20180;-41
2023/10/21 13:39:28;;;;;;;16.03;1.20;;;16.90;76.20;;;;;;5040124;28;20553;-46
2023/10/21 13:41:56;;;;;;;8.97;1.93;;;16.90;67.00;;;;;;5056609;28;20203;-41
2023/10/21 13:44:57;;;;;;;6.93;1.20;;;17.00;76.60;;;;;;5073936;28;20544;-39
2023/10/21 13:47:25;;;;;;;5.33;1.77;;;16.90;65.70;;;;;;5074166;28;20228;-41
2023/10/21 13:49:51;;;;;;;54.73;4.73;;;16.90;76.10;;;;;;5073545;28;20266;-40
2023/10/21 13:52:19;;;;;;;6.87;1.60;;;16.90;72.40;;;;;;5055312;28;20257;-40
2023/10/21 13:54:46;;;;;;;6.67;1.50;;;16.80;58.70;;;;;;5073496;28;20183;-41
2023/10/21 13:57:15;;;;;;;7.30;1.77;;;16.80;57.60;;;;;;5073787;28;20200;-41
2023/10/21 14:03:09;;;;;;;4.33;1.00;;;16.70;66.20;;;;;;5078074;28;20228;-44
2023/10/21 14:10:39;;;;;;;4.87;1.47;;;16.70;63.40;;;;;;5076137;28;20698;-46
2023/10/21 14:13:06;;;;;;;3.70;1.00;;;16.60;60.10;;;;;;5059342;28;20175;-44
2023/10/21 14:15:34;;;;;;;5.13;1.00;;;16.60;77.20;;;;;;5077251;28;20175;-45
2023/10/21 14:18:06;;;;;;;4.40;1.20;;;16.60;86.90;;;;;;5077071;28;20190;-45
2023/10/21 14:20:35;;;;;;;7.10;0.93;;;16.70;87.90;;;;;;5076872;28;20686;-45
2023/10/21 14:23:01;;;;;;;6.80;1.20;;;16.70;93.60;;;;;;5076936;28;20187;-45
2023/10/21 14:25:27;;;;;;;2.87;0.93;;;16.70;91.70;;;;;;5077334;28;20163;-46
2023/10/21 14:27:52;;;;;;;3.33;1.00;;;16.70;92.30;;;;;;5060363;28;20201;-43